sensor_id;sensor_type;location;lat;lon;timestamp;pressure;altitude;pressure_sealevel;temperature;humidity
20017;BME280;10169;42.664;23.610;2023-04-26T00:01:53;94385.13;;;9.24;100.00
20017;BME280;10169;42.664;23.610;2023-04-26T00:03:53;94390.63;;;9.18;100.00
20017;BME280;10169;42.664;23.610;2023-04-26T00:05:55;94387.22;;;9.22;100.00
20017;BME280;10169;42.664;23.610;2023-04-26T00:07:55;94385.28;;;9.13;100.00
20017;BME280;10169;42.664;23.610;2023-04-26T00:09:55;94387.16;;;9.12;100.00
20017;BME280;10169;42.664;23.610;2023-04-26T00:11:56;94388.44;;;9.10;100.00
20017;BME280;10169;42.664;23.610;2023-04-26T00:13:59;94385.81;;;9.10;100.00
20017;BME280;10169;42.664;23.610;2023-04-26T00:15:59;94380.94;;;9.02;100.00
20017;BME280;10169;42.664;23.610;2023-04-26T00:17:59;94374.56;;;8.98;100.00
20017;BME280;10169;42.664;23.610;2023-04-26T00:20:00;94369.66;;;8.85;100.00
20017;BME280;10169;42.664;23.610;2023-04-26T00:22:00;94364.81;;;8.76;100.00
20017;BME280;10169;42.664;23.610;2023-04-26T00:24:01;94359.69;;;8.65;100.00
20017;BME280;10169;42.664;23.610;2023-04-26T00:26:01;94362.53;;;8.58;100.00
20017;BME280;10169;42.664;23.610;2023-04-26T00:28:02;94360.97;;;8.62;100.00
20017;BME280;10169;42.664;23.610;2023-04-26T00:30:02;94358.94;;;8.69;100.00
20017;BME280;10169;42.664;23.610;2023-04-26T00:32:02;94337.03;;;8.52;100.00
20017;BME280;10169;42.664;23.610;2023-04-26T00:34:03;94363.91;;;8.39;100.00
20017;BME280;10169;42.664;23.610;2023-04-26T00:36:03;94363.09;;;8.17;100.00
20017;BME280;10169;42.664;23.610;2023-04-26T00:38:04;94367.41;;;8.23;100.00
20017;BME280;10169;42.664;23.610;2023-04-26T00:40:04;94357.38;;;8.03;100.00
20017;BME280;10169;42.664;23.610;2023-04-26T00:42:08;94350.56;;;7.86;100.00
20017;BME280;10169;42.664;23.610;2023-04-26T00:44:08;94358.59;;;7.74;100.00
20017;BME280;10169;42.664;23.610;2023-04-26T00:46:08;94355.22;;;7.79;100.00
20017;BME280;10169;42.664;23.610;2023-04-26T00:48:09;94354.59;;;7.72;100.00
20017;BME280;10169;42.664;23.610;2023-04-26T00:50:09;94350.91;;;7.73;100.00
20017;BME280;10169;42.664;23.610;2023-04-26T00:52:10;94348.19;;;7.68;100.00
20017;BME280;10169;42.664;23.610;2023-04-26T00:54:11;94354.13;;;7.75;100.00
20017;BME280;10169;42.664;23.610;2023-04-26T00:56:11;94353.06;;;7.76;100.00
20017;BME280;10169;42.664;23.610;2023-04-26T00:58:12;94354.19;;;7.80;100.00
20017;BME280;10169;42.664;23.610;2023-04-26T01:00:12;94353.13;;;7.81;100.00
20017;BME280;10169;42.664;23.610;2023-04-26T01:02:12;94353.22;;;7.69;100.00
20017;BME280;10169;42.664;23.610;2023-04-26T01:04:13;94360.59;;;7.67;100.00
20017;BME280;10169;42.664;23.610;2023-04-26T01:06:14;94353.59;;;7.56;100.00
20017;BME280;10169;42.664;23.610;2023-04-26T01:08:14;94359.59;;;7.52;100.00
20017;BME280;10169;42.664;23.610;2023-04-26T01:10:19;94358.97;;;7.45;100.00
20017;BME280;10169;42.664;23.610;2023-04-26T01:12:20;94367.50;;;7.30;100.00
20017;BME280;10169;42.664;23.610;2023-04-26T01:14:20;94358.34;;;7.38;100.00
20017;BME280;10169;42.664;23.610;2023-04-26T01:16:22;94366.03;;;7.39;100.00
20017;BME280;10169;42.664;23.610;2023-04-26T01:18:22;94360.84;;;7.27;100.00
20017;BME280;10169;42.664;23.610;2023-04-26T01:20:23;94363.72;;;7.09;100.00
20017;BME280;10169;42.664;23.610;2023-04-26T01:22:25;94369.88;;;6.98;100.00
20017;BME280;10169;42.664;23.610;2023-04-26T01:24:25;94371.97;;;6.96;100.00
20017;BME280;10169;42.664;23.610;2023-04-26T01:26:25;94380.47;;;6.98;100.00
20017;BME280;10169;42.664;23.610;2023-04-26T01:28:26;94383.34;;;6.97;100.00
20017;BME280;10169;42.664;23.610;2023-04-26T01:30:26;94379.66;;;6.98;100.00
20017;BME280;10169;42.664;23.610;2023-04-26T01:32:26;94371.97;;;6.96;100.00
20017;BME280;10169;42.664;23.610;2023-04-26T01:34:27;94373.88;;;6.84;100.00
20017;BME280;10169;42.664;23.610;2023-04-26T01:36:27;94370.44;;;6.67;100.00
20017;BME280;10169;42.664;23.610;2023-04-26T01:38:27;94365.50;;;6.59;100.00
20017;BME280;10169;42.664;23.610;2023-04-26T01:40:28;94360.38;;;6.52;100.00
20017;BME280;10169;42.664;23.610;2023-04-26T01:42:28;94363.28;;;6.51;100.00
20017;BME280;10169;42.664;23.610;2023-04-26T01:44:28;94359.75;;;6.45;100.00
20017;BME280;10169;42.664;23.610;2023-04-26T01:46:29;94363.41;;;6.44;100.00
20017;BME280;10169;42.664;23.610;2023-04-26T01:48:29;94360.94;;;6.38;100.00
20017;BME280;10169;42.664;23.610;2023-04-26T01:50:30;94368.97;;;6.31;100.00
20017;BME280;10169;42.664;23.610;2023-04-26T01:52:30;94369.94;;;6.25;100.00
20017;BME280;10169;42.664;23.610;2023-04-26T01:54:30;94376.00;;;6.26;100.00
20017;BME280;10169;42.664;23.610;2023-04-26T01:56:30;94374.69;;;6.40;100.00
20017;BME280;10169;42.664;23.610;2023-04-26T01:58:31;94378.00;;;6.64;100.00
20017;BME280;10169;42.664;23.610;2023-04-26T02:00:32;94377.22;;;6.80;100.00
20017;BME280;10169;42.664;23.610;2023-04-26T02:02:32;94384.06;;;6.92;100.00
20017;BME280;10169;42.664;23.610;2023-04-26T02:04:33;94372.94;;;6.90;100.00
20017;BME280;10169;42.664;23.610;2023-04-26T02:06:33;94379.50;;;6.88;100.00
20017;BME280;10169;42.664;23.610;2023-04-26T02:08:33;94375.25;;;6.87;100.00
20017;BME280;10169;42.664;23.610;2023-04-26T02:10:33;94379.72;;;6.86;100.00
20017;BME280;10169;42.664;23.610;2023-04-26T02:12:34;94369.25;;;6.75;100.00
20017;BME280;10169;42.664;23.610;2023-04-26T02:14:34;94358.03;;;6.68;100.00
20017;BME280;10169;42.664;23.610;2023-04-26T02:16:35;94359.66;;;6.57;100.00
20017;BME280;10169;42.664;23.610;2023-04-26T02:18:35;94353.53;;;6.51;100.00
20017;BME280;10169;42.664;23.610;2023-04-26T02:20:35;94369.91;;;6.53;100.00
20017;BME280;10169;42.664;23.610;2023-04-26T02:22:36;94363.28;;;6.51;100.00
20017;BME280;10169;42.664;23.610;2023-04-26T02:24:37;94365.91;;;6.51;100.00
20017;BME280;10169;42.664;23.610;2023-04-26T02:26:37;94363.03;;;6.52;100.00
20017;BME280;10169;42.664;23.610;2023-04-26T02:28:37;94366.88;;;6.45;100.00
20017;BME280;10169;42.664;23.610;2023-04-26T02:30:38;94368.75;;;6.33;100.00
20017;BME280;10169;42.664;23.610;2023-04-26T02:32:38;94363.47;;;6.33;100.00
20017;BME280;10169;42.664;23.610;2023-04-26T02:34:38;94372.88;;;6.29;100.00
20017;BME280;10169;42.664;23.610;2023-04-26T02:36:39;94378.56;;;6.21;100.00
20017;BME280;10169;42.664;23.610;2023-04-26T02:38:40;94378.56;;;6.21;100.00
20017;BME280;10169;42.664;23.610;2023-04-26T02:40:40;94373.13;;;6.27;100.00
20017;BME280;10169;42.664;23.610;2023-04-26T02:42:40;94381.09;;;6.44;100.00
20017;BME280;10169;42.664;23.610;2023-04-26T02:44:41;94380.72;;;6.52;100.00
20017;BME280;10169;42.664;23.610;2023-04-26T02:46:41;94379.56;;;6.48;100.00
20017;BME280;10169;42.664;23.610;2023-04-26T02:48:42;94381.56;;;6.41;100.00
20017;BME280;10169;42.664;23.610;2023-04-26T02:50:42;94385.00;;;6.41;100.00
20017;BME280;10169;42.664;23.610;2023-04-26T02:52:42;94379.84;;;6.35;100.00
20017;BME280;10169;42.664;23.610;2023-04-26T02:54:43;94378.16;;;6.29;100.00
20017;BME280;10169;42.664;23.610;2023-04-26T02:56:43;94370.41;;;6.22;100.00
20017;BME280;10169;42.664;23.610;2023-04-26T02:58:43;94379.19;;;6.28;100.00
20017;BME280;10169;42.664;23.610;2023-04-26T03:00:47;94360.81;;;6.33;100.00
20017;BME280;10169;42.664;23.610;2023-04-26T03:02:47;94356.97;;;6.24;100.00
20017;BME280;10169;42.664;23.610;2023-04-26T03:04:47;94352.81;;;6.28;100.00
20017;BME280;10169;42.664;23.610;2023-04-26T03:06:48;94343.34;;;6.15;100.00
20017;BME280;10169;42.664;23.610;2023-04-26T03:08:48;94343.03;;;6.12;100.00
20017;BME280;10169;42.664;23.610;2023-04-26T03:10:48;94343.91;;;6.17;100.00
20017;BME280;10169;42.664;23.610;2023-04-26T03:12:49;94347.66;;;6.21;100.00
20017;BME280;10169;42.664;23.610;2023-04-26T03:14:49;94345.13;;;6.26;100.00
20017;BME280;10169;42.664;23.610;2023-04-26T03:16:49;94353.06;;;6.26;100.00
20017;BME280;10169;42.664;23.610;2023-04-26T03:18:49;94358.47;;;6.20;100.00
20017;BME280;10169;42.664;23.610;2023-04-26T03:20:50;94357.88;;;6.29;100.00
20017;BME280;10169;42.664;23.610;2023-04-26T03:22:50;94352.53;;;6.41;100.00
20017;BME280;10169;42.664;23.610;2023-04-26T03:24:50;94342.63;;;6.48;100.00
20017;BME280;10169;42.664;23.610;2023-04-26T03:26:51;94352.97;;;6.49;100.00
20017;BME280;10169;42.664;23.610;2023-04-26T03:28:51;94339.06;;;6.54;100.00
20017;BME280;10169;42.664;23.610;2023-04-26T03:30:51;94338.75;;;6.39;100.00
20017;BME280;10169;42.664;23.610;2023-04-26T03:32:52;94334.84;;;6.25;100.00
20017;BME280;10169;42.664;23.610;2023-04-26T03:34:53;94337.81;;;6.17;100.00
20017;BME280;10169;42.664;23.610;2023-04-26T03:36:54;94342.09;;;6.18;100.00
20017;BME280;10169;42.664;23.610;2023-04-26T03:38:54;94344.72;;;6.18;100.00
20017;BME280;10169;42.664;23.610;2023-04-26T03:40:55;94341.28;;;6.17;100.00
20017;BME280;10169;42.664;23.610;2023-04-26T03:42:55;94344.31;;;6.09;100.00
20017;BME280;10169;42.664;23.610;2023-04-26T03:44:56;94343.59;;;6.14;100.00
20017;BME280;10169;42.664;23.610;2023-04-26T03:46:56;94349.09;;;6.12;100.00
20017;BME280;10169;42.664;23.610;2023-04-26T03:48:57;94347.50;;;6.11;100.00
20017;BME280;10169;42.664;23.610;2023-04-26T03:50:57;94348.88;;;6.14;100.00
20017;BME280;10169;42.664;23.610;2023-04-26T03:52:57;94353.91;;;6.15;100.00
20017;BME280;10169;42.664;23.610;2023-04-26T03:54:58;94346.78;;;6.16;100.00
20017;BME280;10169;42.664;23.610;2023-04-26T03:56:58;94349.53;;;6.21;100.00
20017;BME280;10169;42.664;23.610;2023-04-26T03:58:58;94348.94;;;6.19;100.00
20017;BME280;10169;42.664;23.610;2023-04-26T04:00:59;94354.81;;;6.21;100.00
20017;BME280;10169;42.664;23.610;2023-04-26T04:02:59;94357.16;;;6.34;100.00
20017;BME280;10169;42.664;23.610;2023-04-26T04:05:00;94361.75;;;6.55;100.00
20017;BME280;10169;42.664;23.610;2023-04-26T04:07:00;94370.53;;;6.72;100.00
20017;BME280;10169;42.664;23.610;2023-04-26T04:09:01;94374.44;;;6.86;100.00
20017;BME280;10169;42.664;23.610;2023-04-26T04:11:01;94382.06;;;6.99;100.00
20017;BME280;10169;42.664;23.610;2023-04-26T04:13:01;94380.53;;;7.03;100.00
20017;BME280;10169;42.664;23.610;2023-04-26T04:15:02;94377.50;;;7.11;100.00
20017;BME280;10169;42.664;23.610;2023-04-26T04:17:02;94378.22;;;7.23;100.00
20017;BME280;10169;42.664;23.610;2023-04-26T04:19:02;94381.09;;;7.39;100.00
20017;BME280;10169;42.664;23.610;2023-04-26T04:21:03;94376.97;;;7.64;100.00
20017;BME280;10169;42.664;23.610;2023-04-26T04:23:03;94380.47;;;7.70;100.00
20017;BME280;10169;42.664;23.610;2023-04-26T04:25:08;94386.09;;;7.73;100.00
20017;BME280;10169;42.664;23.610;2023-04-26T04:27:12;94383.13;;;7.70;100.00
20017;BME280;10169;42.664;23.610;2023-04-26T04:29:13;94379.78;;;7.58;100.00
20017;BME280;10169;42.664;23.610;2023-04-26T04:31:13;94374.00;;;7.61;100.00
20017;BME280;10169;42.664;23.610;2023-04-26T04:33:14;94387.13;;;7.72;100.00
20017;BME280;10169;42.664;23.610;2023-04-26T04:35:15;94387.75;;;7.79;100.00
20017;BME280;10169;42.664;23.610;2023-04-26T04:37:15;94380.28;;;7.93;100.00
20017;BME280;10169;42.664;23.610;2023-04-26T04:39:16;94381.50;;;8.07;100.00
20017;BME280;10169;42.664;23.610;2023-04-26T04:41:16;94378.44;;;8.15;100.00
20017;BME280;10169;42.664;23.610;2023-04-26T04:43:16;94378.78;;;8.24;100.00
20017;BME280;10169;42.664;23.610;2023-04-26T04:45:17;94377.69;;;8.41;100.00
20017;BME280;10169;42.664;23.610;2023-04-26T04:47:17;94374.16;;;8.57;100.00
20017;BME280;10169;42.664;23.610;2023-04-26T04:49:18;94380.34;;;8.68;100.00
20017;BME280;10169;42.664;23.610;2023-04-26T04:51:18;94384.09;;;8.72;100.00
20017;BME280;10169;42.664;23.610;2023-04-26T04:53:18;94384.22;;;8.82;100.00
20017;BME280;10169;42.664;23.610;2023-04-26T04:55:18;94391.25;;;8.98;100.00
20017;BME280;10169;42.664;23.610;2023-04-26T04:57:19;94393.22;;;9.13;100.00
20017;BME280;10169;42.664;23.610;2023-04-26T04:59:19;94382.09;;;9.11;100.00
20017;BME280;10169;42.664;23.610;2023-04-26T05:01:19;94384.50;;;9.12;100.00
20017;BME280;10169;42.664;23.610;2023-04-26T05:03:20;94384.09;;;9.30;100.00
20017;BME280;10169;42.664;23.610;2023-04-26T05:05:21;94383.44;;;9.13;100.00
20017;BME280;10169;42.664;23.610;2023-04-26T05:07:21;94377.13;;;8.88;100.00
20017;BME280;10169;42.664;23.610;2023-04-26T05:09:22;94374.06;;;9.01;100.00
20017;BME280;10169;42.664;23.610;2023-04-26T05:11:22;94372.16;;;8.96;100.00
20017;BME280;10169;42.664;23.610;2023-04-26T05:13:22;94384.06;;;8.94;100.00
20017;BME280;10169;42.664;23.610;2023-04-26T05:15:23;94389.09;;;8.95;100.00
20017;BME280;10169;42.664;23.610;2023-04-26T05:17:23;94393.59;;;8.95;100.00
20017;BME280;10169;42.664;23.610;2023-04-26T05:19:23;94384.06;;;8.94;100.00
20017;BME280;10169;42.664;23.610;2023-04-26T05:21:24;94381.50;;;9.04;100.00
20017;BME280;10169;42.664;23.610;2023-04-26T05:23:24;94381.50;;;9.04;100.00
20017;BME280;10169;42.664;23.610;2023-04-26T05:25:25;94387.97;;;9.18;100.00
20017;BME280;10169;42.664;23.610;2023-04-26T05:27:26;94391.22;;;9.25;100.00
20017;BME280;10169;42.664;23.610;2023-04-26T05:29:30;94392.63;;;9.32;100.00
20017;BME280;10169;42.664;23.610;2023-04-26T05:31:30;94399.28;;;9.40;100.00
20017;BME280;10169;42.664;23.610;2023-04-26T05:33:30;94399.59;;;9.43;100.00
20017;BME280;10169;42.664;23.610;2023-04-26T05:35:31;94395.06;;;9.39;100.00
20017;BME280;10169;42.664;23.610;2023-04-26T05:37:31;94393.03;;;9.56;100.00
20017;BME280;10169;42.664;23.610;2023-04-26T05:39:32;94396.34;;;9.73;100.00
20017;BME280;10169;42.664;23.610;2023-04-26T05:41:32;94403.56;;;9.83;100.00
20017;BME280;10169;42.664;23.610;2023-04-26T05:43:32;94401.41;;;9.80;100.00
20017;BME280;10169;42.664;23.610;2023-04-26T05:45:33;94402.19;;;9.75;100.00
20017;BME280;10169;42.664;23.610;2023-04-26T05:47:33;94397.53;;;9.92;100.00
20017;BME280;10169;42.664;23.610;2023-04-26T05:49:33;94395.06;;;9.81;100.00
20017;BME280;10169;42.664;23.610;2023-04-26T05:51:34;94389.81;;;9.91;100.00
20017;BME280;10169;42.664;23.610;2023-04-26T05:53:34;94390.94;;;10.05;100.00
20017;BME280;10169;42.664;23.610;2023-04-26T05:55:35;94392.25;;;9.97;100.00
20017;BME280;10169;42.664;23.610;2023-04-26T05:57:35;94392.44;;;9.91;100.00
20017;BME280;10169;42.664;23.610;2023-04-26T05:59:36;94395.94;;;9.96;100.00
20017;BME280;10169;42.664;23.610;2023-04-26T06:01:36;94396.78;;;10.07;100.00
20017;BME280;10169;42.664;23.610;2023-04-26T06:03:36;94396.56;;;10.08;100.00
20017;BME280;10169;42.664;23.610;2023-04-26T06:05:37;94388.16;;;9.80;100.00
20017;BME280;10169;42.664;23.610;2023-04-26T06:07:37;94386.88;;;9.87;100.00
20017;BME280;10169;42.664;23.610;2023-04-26T06:09:38;94392.78;;;9.99;100.00
20017;BME280;10169;42.664;23.610;2023-04-26T06:11:38;94389.47;;;10.19;100.00
20017;BME280;10169;42.664;23.610;2023-04-26T06:13:39;94389.81;;;10.38;100.00
20017;BME280;10169;42.664;23.610;2023-04-26T06:15:39;94382.19;;;10.66;100.00
20017;BME280;10169;42.664;23.610;2023-04-26T06:17:39;94377.44;;;10.73;100.00
20017;BME280;10169;42.664;23.610;2023-04-26T06:19:40;94373.38;;;10.51;100.00
20017;BME280;10169;42.664;23.610;2023-04-26T06:21:41;94376.13;;;10.76;100.00
20017;BME280;10169;42.664;23.610;2023-04-26T06:23:41;94376.63;;;10.73;100.00
20017;BME280;10169;42.664;23.610;2023-04-26T06:25:41;94378.78;;;10.91;100.00
20017;BME280;10169;42.664;23.610;2023-04-26T06:27:44;94376.16;;;11.06;100.00
20017;BME280;10169;42.664;23.610;2023-04-26T06:29:44;94375.25;;;10.60;100.00
20017;BME280;10169;42.664;23.610;2023-04-26T06:31:45;94378.47;;;10.72;100.00
20017;BME280;10169;42.664;23.610;2023-04-26T06:33:45;94379.31;;;10.93;100.00
20017;BME280;10169;42.664;23.610;2023-04-26T06:35:45;94377.72;;;10.92;100.00
20017;BME280;10169;42.664;23.610;2023-04-26T06:37:46;94375.59;;;10.94;100.00
20017;BME280;10169;42.664;23.610;2023-04-26T06:39:46;94373.22;;;11.08;100.00
20017;BME280;10169;42.664;23.610;2023-04-26T06:41:46;94376.44;;;11.20;100.00
20017;BME280;10169;42.664;23.610;2023-04-26T06:43:47;94383.09;;;11.27;100.00
20017;BME280;10169;42.664;23.610;2023-04-26T06:45:47;94378.56;;;11.43;100.00
20017;BME280;10169;42.664;23.610;2023-04-26T06:47:49;94380.66;;;11.46;100.00
20017;BME280;10169;42.664;23.610;2023-04-26T06:49:50;94380.13;;;11.84;100.00
20017;BME280;10169;42.664;23.610;2023-04-26T06:51:50;94374.00;;;11.63;100.00
20017;BME280;10169;42.664;23.610;2023-04-26T06:53:51;94375.09;;;11.62;100.00
20017;BME280;10169;42.664;23.610;2023-04-26T06:55:52;94367.34;;;11.91;100.00
20017;BME280;10169;42.664;23.610;2023-04-26T06:57:53;94370.53;;;11.98;100.00
20017;BME280;10169;42.664;23.610;2023-04-26T06:59:53;94370.75;;;12.17;100.00
20017;BME280;10169;42.664;23.610;2023-04-26T07:01:53;94361.19;;;12.06;100.00
20017;BME280;10169;42.664;23.610;2023-04-26T07:03:54;94359.31;;;12.06;100.00
20017;BME280;10169;42.664;23.610;2023-04-26T07:05:55;94358.31;;;11.82;100.00
20017;BME280;10169;42.664;23.610;2023-04-26T07:07:55;94361.16;;;12.11;100.00
20017;BME280;10169;42.664;23.610;2023-04-26T07:09:56;94363.88;;;11.96;100.00
20017;BME280;10169;42.664;23.610;2023-04-26T07:11:56;94361.25;;;11.86;100.00
20017;BME280;10169;42.664;23.610;2023-04-26T07:13:56;94364.66;;;12.01;100.00
20017;BME280;10169;42.664;23.610;2023-04-26T07:15:57;94365.78;;;11.85;100.00
20017;BME280;10169;42.664;23.610;2023-04-26T07:17:57;94370.56;;;11.73;100.00
20017;BME280;10169;42.664;23.610;2023-04-26T07:19:58;94369.44;;;11.99;100.00
20017;BME280;10169;42.664;23.610;2023-04-26T07:21:58;94369.22;;;11.86;100.00
20017;BME280;10169;42.664;23.610;2023-04-26T07:23:58;94371.34;;;11.89;100.00
20017;BME280;10169;42.664;23.610;2023-04-26T07:25:58;94366.06;;;11.79;100.00
20017;BME280;10169;42.664;23.610;2023-04-26T07:28:00;94367.63;;;11.95;100.00
20017;BME280;10169;42.664;23.610;2023-04-26T07:30:00;94361.97;;;12.11;100.00
20017;BME280;10169;42.664;23.610;2023-04-26T07:32:01;94365.44;;;12.12;100.00
20017;BME280;10169;42.664;23.610;2023-04-26T07:34:01;94356.72;;;11.81;100.00
20017;BME280;10169;42.664;23.610;2023-04-26T07:36:01;94357.50;;;11.82;100.00
20017;BME280;10169;42.664;23.610;2023-04-26T07:38:02;94361.38;;;12.19;100.00
20017;BME280;10169;42.664;23.610;2023-04-26T07:40:03;94360.88;;;12.17;100.00
20017;BME280;10169;42.664;23.610;2023-04-26T07:42:04;94363.22;;;12.29;100.00
20017;BME280;10169;42.664;23.610;2023-04-26T07:44:04;94363.72;;;12.46;100.00
20017;BME280;10169;42.664;23.610;2023-04-26T07:46:04;94360.56;;;12.29;100.00
20017;BME280;10169;42.664;23.610;2023-04-26T07:48:05;94356.22;;;12.48;100.00
20017;BME280;10169;42.664;23.610;2023-04-26T07:50:05;94356.38;;;12.72;100.00
20017;BME280;10169;42.664;23.610;2023-04-26T07:52:07;94346.81;;;13.09;100.00
20017;BME280;10169;42.664;23.610;2023-04-26T07:54:07;94358.16;;;12.86;100.00
20017;BME280;10169;42.664;23.610;2023-04-26T07:56:08;94354.84;;;13.04;100.00
20017;BME280;10169;42.664;23.610;2023-04-26T07:58:08;94366.28;;;13.10;100.00
20017;BME280;10169;42.664;23.610;2023-04-26T08:00:13;94358.94;;;12.87;100.00
20017;BME280;10169;42.664;23.610;2023-04-26T08:02:14;94360.56;;;12.83;100.00
20017;BME280;10169;42.664;23.610;2023-04-26T08:04:16;94352.44;;;13.08;100.00
20017;BME280;10169;42.664;23.610;2023-04-26T08:06:16;94357.22;;;13.11;100.00
20017;BME280;10169;42.664;23.610;2023-04-26T08:08:17;94356.88;;;12.74;100.00
20017;BME280;10169;42.664;23.610;2023-04-26T08:10:17;94356.03;;;12.83;100.00
20017;BME280;10169;42.664;23.610;2023-04-26T08:12:18;94365.41;;;13.25;100.00
20017;BME280;10169;42.664;23.610;2023-04-26T08:14:18;94357.16;;;13.50;100.00
20017;BME280;10169;42.664;23.610;2023-04-26T08:16:18;94369.84;;;13.34;100.00
20017;BME280;10169;42.664;23.610;2023-04-26T08:18:19;94359.28;;;13.19;100.00
20017;BME280;10169;42.664;23.610;2023-04-26T08:20:19;94365.84;;;13.32;100.00
20017;BME280;10169;42.664;23.610;2023-04-26T08:22:19;94367.22;;;13.29;100.00
20017;BME280;10169;42.664;23.610;2023-04-26T08:24:20;94359.66;;;13.41;100.00
20017;BME280;10169;42.664;23.610;2023-04-26T08:26:20;94356.59;;;13.24;100.00
20017;BME280;10169;42.664;23.610;2023-04-26T08:28:21;94363.41;;;13.40;100.00
20017;BME280;10169;42.664;23.610;2023-04-26T08:30:21;94347.94;;;13.37;100.00
20017;BME280;10169;42.664;23.610;2023-04-26T08:32:22;94356.31;;;13.26;100.00
20017;BME280;10169;42.664;23.610;2023-04-26T08:34:22;94357.75;;;13.47;100.00
20017;BME280;10169;42.664;23.610;2023-04-26T08:36:22;94363.78;;;13.24;100.00
20017;BME280;10169;42.664;23.610;2023-04-26T08:38:23;94351.41;;;13.38;100.00
20017;BME280;10169;42.664;23.610;2023-04-26T08:40:23;94353.34;;;13.27;100.00
20017;BME280;10169;42.664;23.610;2023-04-26T08:42:25;94353.94;;;13.24;100.00
20017;BME280;10169;42.664;23.610;2023-04-26T08:44:26;94349.03;;;13.65;100.00
20017;BME280;10169;42.664;23.610;2023-04-26T08:46:28;94366.00;;;13.45;100.00
20017;BME280;10169;42.664;23.610;2023-04-26T08:48:29;94351.66;;;13.70;100.00
20017;BME280;10169;42.664;23.610;2023-04-26T08:50:33;94348.66;;;13.48;100.00
20017;BME280;10169;42.664;23.610;2023-04-26T08:52:33;94349.84;;;13.32;100.00
20017;BME280;10169;42.664;23.610;2023-04-26T08:54:34;94360.16;;;13.43;100.00
20017;BME280;10169;42.664;23.610;2023-04-26T08:56:35;94357.69;;;13.52;100.00
20017;BME280;10169;42.664;23.610;2023-04-26T08:58:37;94345.38;;;13.85;100.00
20017;BME280;10169;42.664;23.610;2023-04-26T09:00:37;94348.28;;;13.88;100.00
20017;BME280;10169;42.664;23.610;2023-04-26T09:02:56;94351.06;;;13.78;100.00
20017;BME280;10169;42.664;23.610;2023-04-26T09:04:56;94337.78;;;13.68;100.00
20017;BME280;10169;42.664;23.610;2023-04-26T09:06:59;94351.59;;;13.46;100.00
20017;BME280;10169;42.664;23.610;2023-04-26T09:09:03;94356.06;;;13.56;100.00
20017;BME280;10169;42.664;23.610;2023-04-26T09:11:04;94354.75;;;13.82;100.00
20017;BME280;10169;42.664;23.610;2023-04-26T09:13:04;94359.31;;;13.48;100.00
20017;BME280;10169;42.664;23.610;2023-04-26T09:15:05;94359.16;;;13.34;100.00
20017;BME280;10169;42.664;23.610;2023-04-26T09:36:55;94366.75;;;13.56;100.00
20017;BME280;10169;42.664;23.610;2023-04-26T09:38:56;94360.56;;;13.27;100.00
20017;BME280;10169;42.664;23.610;2023-04-26T09:40:56;94367.44;;;13.38;100.00
20017;BME280;10169;42.664;23.610;2023-04-26T09:42:59;94372.09;;;13.56;100.00
20017;BME280;10169;42.664;23.610;2023-04-26T09:45:05;94365.69;;;13.52;100.00
20017;BME280;10169;42.664;23.610;2023-04-26T09:47:07;94361.00;;;13.67;100.00
20017;BME280;10169;42.664;23.610;2023-04-26T09:49:09;94357.97;;;13.79;100.00
20017;BME280;10169;42.664;23.610;2023-04-26T09:51:09;94357.75;;;13.75;100.00
20017;BME280;10169;42.664;23.610;2023-04-26T09:55:27;94338.47;;;14.07;100.00
20017;BME280;10169;42.664;23.610;2023-04-26T09:57:27;94356.81;;;14.14;100.00
20017;BME280;10169;42.664;23.610;2023-04-26T09:59:37;94354.03;;;14.00;100.00
20017;BME280;10169;42.664;23.610;2023-04-26T10:01:38;94351.34;;;14.52;100.00
20017;BME280;10169;42.664;23.610;2023-04-26T10:03:39;94352.97;;;14.48;98.97
20017;BME280;10169;42.664;23.610;2023-04-26T10:05:40;94359.22;;;14.63;100.00
20017;BME280;10169;42.664;23.610;2023-04-26T10:07:40;94347.25;;;14.08;96.92
20017;BME280;10169;42.664;23.610;2023-04-26T10:09:41;94345.97;;;14.29;95.04
20017;BME280;10169;42.664;23.610;2023-04-26T10:11:41;94352.75;;;14.45;91.40
20017;BME280;10169;42.664;23.610;2023-04-26T10:13:42;94342.66;;;14.37;91.52
20017;BME280;10169;42.664;23.610;2023-04-26T10:15:43;94354.75;;;14.95;92.41
20017;BME280;10169;42.664;23.610;2023-04-26T10:17:44;94351.19;;;15.00;97.02
20017;BME280;10169;42.664;23.610;2023-04-26T10:19:44;94342.34;;;14.43;88.84
20017;BME280;10169;42.664;23.610;2023-04-26T10:21:47;94338.13;;;14.61;93.87
20017;BME280;10169;42.664;23.610;2023-04-26T10:23:48;94346.50;;;14.26;100.00
20017;BME280;10169;42.664;23.610;2023-04-26T10:25:49;94332.78;;;14.14;100.00
20017;BME280;10169;42.664;23.610;2023-04-26T10:27:49;94350.13;;;14.16;98.50
20017;BME280;10169;42.664;23.610;2023-04-26T10:34:18;94349.03;;;13.65;100.00
20017;BME280;10169;42.664;23.610;2023-04-26T10:36:18;94349.88;;;14.13;100.00
20017;BME280;10169;42.664;23.610;2023-04-26T10:38:20;94347.09;;;13.99;95.59
20017;BME280;10169;42.664;23.610;2023-04-26T10:40:23;94338.97;;;13.57;96.20
20017;BME280;10169;42.664;23.610;2023-04-26T10:42:25;94355.16;;;13.65;100.00
20017;BME280;10169;42.664;23.610;2023-04-26T10:46:36;94321.88;;;13.58;100.00
20017;BME280;10169;42.664;23.610;2023-04-26T10:48:37;94349.03;;;13.65;100.00
20017;BME280;10169;42.664;23.610;2023-04-26T10:54:59;94349.03;;;13.65;99.35
20017;BME280;10169;42.664;23.610;2023-04-26T10:57:01;94350.69;;;13.90;96.90
20017;BME280;10169;42.664;23.610;2023-04-26T11:01:09;94349.28;;;13.68;91.37
20017;BME280;10169;42.664;23.610;2023-04-26T11:03:12;94345.63;;;13.83;90.39